sensor_id;sensor_type;location;lat;lon;timestamp;P1;durP1;ratioP1;P2;durP2;ratioP2
18532;SDS011;9396;51.510;11.934;2023-07-31T00:01:26;4.33;;;1.50;;
18532;SDS011;9396;51.510;11.934;2023-07-31T00:03:53;4.10;;;1.83;;
18532;SDS011;9396;51.510;11.934;2023-07-31T00:06:19;5.10;;;1.90;;
18532;SDS011;9396;51.510;11.934;2023-07-31T00:08:46;5.07;;;1.67;;
18532;SDS011;9396;51.510;11.934;2023-07-31T00:11:14;7.77;;;1.40;;
18532;SDS011;9396;51.510;11.934;2023-07-31T00:13:41;5.17;;;1.87;;
18532;SDS011;9396;51.510;11.934;2023-07-31T00:16:08;5.17;;;1.73;;
18532;SDS011;9396;51.510;11.934;2023-07-31T00:18:34;4.27;;;1.63;;
18532;SDS011;9396;51.510;11.934;2023-07-31T00:21:01;5.63;;;1.80;;
18532;SDS011;9396;51.510;11.934;2023-07-31T00:23:28;2.20;;;1.27;;
18532;SDS011;9396;51.510;11.934;2023-07-31T00:25:54;3.87;;;1.40;;
18532;SDS011;9396;51.510;11.934;2023-07-31T00:28:22;4.23;;;1.43;;
18532;SDS011;9396;51.510;11.934;2023-07-31T00:30:49;6.23;;;1.77;;
18532;SDS011;9396;51.510;11.934;2023-07-31T00:33:16;2.97;;;1.67;;
18532;SDS011;9396;51.510;11.934;2023-07-31T00:35:42;4.97;;;1.60;;
18532;SDS011;9396;51.510;11.934;2023-07-31T00:38:09;3.40;;;1.60;;
18532;SDS011;9396;51.510;11.934;2023-07-31T00:40:36;6.23;;;1.50;;
18532;SDS011;9396;51.510;11.934;2023-07-31T00:43:03;5.43;;;1.50;;
18532;SDS011;9396;51.510;11.934;2023-07-31T00:45:31;10.17;;;1.73;;
18532;SDS011;9396;51.510;11.934;2023-07-31T00:47:59;4.70;;;1.50;;
18532;SDS011;9396;51.510;11.934;2023-07-31T00:50:26;5.60;;;1.70;;
18532;SDS011;9396;51.510;11.934;2023-07-31T00:52:54;3.63;;;1.50;;
18532;SDS011;9396;51.510;11.934;2023-07-31T00:55:21;5.77;;;1.40;;
18532;SDS011;9396;51.510;11.934;2023-07-31T00:57:48;5.60;;;2.03;;
18532;SDS011;9396;51.510;11.934;2023-07-31T01:00:15;6.77;;;1.97;;
18532;SDS011;9396;51.510;11.934;2023-07-31T01:02:43;8.57;;;1.80;;
18532;SDS011;9396;51.510;11.934;2023-07-31T01:05:10;4.03;;;1.90;;
18532;SDS011;9396;51.510;11.934;2023-07-31T01:07:39;3.53;;;1.60;;
18532;SDS011;9396;51.510;11.934;2023-07-31T01:10:14;2.80;;;1.50;;
18532;SDS011;9396;51.510;11.934;2023-07-31T01:12:45;5.97;;;2.00;;
18532;SDS011;9396;51.510;11.934;2023-07-31T01:15:12;6.87;;;2.03;;
18532;SDS011;9396;51.510;11.934;2023-07-31T01:17:40;4.60;;;1.40;;
18532;SDS011;9396;51.510;11.934;2023-07-31T01:20:10;4.37;;;1.70;;
18532;SDS011;9396;51.510;11.934;2023-07-31T01:25:32;6.00;;;1.50;;
18532;SDS011;9396;51.510;11.934;2023-07-31T01:28:23;3.77;;;1.63;;
18532;SDS011;9396;51.510;11.934;2023-07-31T01:30:54;5.70;;;1.60;;
18532;SDS011;9396;51.510;11.934;2023-07-31T01:33:24;3.70;;;1.27;;
18532;SDS011;9396;51.510;11.934;2023-07-31T01:35:52;3.77;;;1.27;;
18532;SDS011;9396;51.510;11.934;2023-07-31T01:38:20;3.53;;;1.50;;
18532;SDS011;9396;51.510;11.934;2023-07-31T01:40:50;4.97;;;1.40;;
18532;SDS011;9396;51.510;11.934;2023-07-31T01:43:18;3.70;;;1.40;;
18532;SDS011;9396;51.510;11.934;2023-07-31T01:45:46;4.33;;;1.67;;
18532;SDS011;9396;51.510;11.934;2023-07-31T01:48:13;4.70;;;1.40;;
18532;SDS011;9396;51.510;11.934;2023-07-31T01:50:40;5.13;;;1.40;;
18532;SDS011;9396;51.510;11.934;2023-07-31T01:53:06;4.03;;;1.67;;
18532;SDS011;9396;51.510;11.934;2023-07-31T01:55:33;2.93;;;1.43;;
18532;SDS011;9396;51.510;11.934;2023-07-31T01:58:00;2.60;;;1.33;;
18532;SDS011;9396;51.510;11.934;2023-07-31T02:00:26;5.47;;;1.53;;
18532;SDS011;9396;51.510;11.934;2023-07-31T02:02:54;4.63;;;1.73;;
18532;SDS011;9396;51.510;11.934;2023-07-31T02:05:21;3.73;;;1.37;;
18532;SDS011;9396;51.510;11.934;2023-07-31T02:07:48;3.90;;;1.60;;
18532;SDS011;9396;51.510;11.934;2023-07-31T02:10:15;6.40;;;1.60;;
18532;SDS011;9396;51.510;11.934;2023-07-31T02:12:41;6.50;;;1.47;;
18532;SDS011;9396;51.510;11.934;2023-07-31T02:15:08;4.30;;;1.33;;
18532;SDS011;9396;51.510;11.934;2023-07-31T02:17:35;5.50;;;1.70;;
18532;SDS011;9396;51.510;11.934;2023-07-31T02:20:04;3.80;;;1.77;;
18532;SDS011;9396;51.510;11.934;2023-07-31T02:22:32;5.90;;;1.93;;
18532;SDS011;9396;51.510;11.934;2023-07-31T02:24:58;6.17;;;1.67;;
18532;SDS011;9396;51.510;11.934;2023-07-31T02:27:25;4.93;;;1.50;;
18532;SDS011;9396;51.510;11.934;2023-07-31T02:29:52;8.33;;;1.90;;
18532;SDS011;9396;51.510;11.934;2023-07-31T02:32:19;4.77;;;1.80;;
18532;SDS011;9396;51.510;11.934;2023-07-31T02:34:46;3.53;;;1.60;;
18532;SDS011;9396;51.510;11.934;2023-07-31T02:37:14;5.30;;;1.60;;
18532;SDS011;9396;51.510;11.934;2023-07-31T02:39:40;5.60;;;1.97;;
18532;SDS011;9396;51.510;11.934;2023-07-31T02:42:07;5.13;;;1.57;;
18532;SDS011;9396;51.510;11.934;2023-07-31T02:44:34;4.67;;;1.60;;
18532;SDS011;9396;51.510;11.934;2023-07-31T02:47:01;4.40;;;1.50;;
18532;SDS011;9396;51.510;11.934;2023-07-31T02:49:28;3.53;;;1.73;;
18532;SDS011;9396;51.510;11.934;2023-07-31T02:51:54;4.53;;;1.77;;
18532;SDS011;9396;51.510;11.934;2023-07-31T02:54:23;4.60;;;1.63;;
18532;SDS011;9396;51.510;11.934;2023-07-31T02:56:49;3.50;;;1.47;;
18532;SDS011;9396;51.510;11.934;2023-07-31T02:59:16;5.40;;;1.70;;
18532;SDS011;9396;51.510;11.934;2023-07-31T03:01:44;4.67;;;1.87;;
18532;SDS011;9396;51.510;11.934;2023-07-31T03:04:10;8.17;;;1.60;;
18532;SDS011;9396;51.510;11.934;2023-07-31T03:06:37;4.47;;;1.80;;
18532;SDS011;9396;51.510;11.934;2023-07-31T03:09:04;6.40;;;1.60;;
18532;SDS011;9396;51.510;11.934;2023-07-31T03:11:32;5.17;;;1.70;;
18532;SDS011;9396;51.510;11.934;2023-07-31T03:13:59;5.00;;;1.63;;
18532;SDS011;9396;51.510;11.934;2023-07-31T03:16:25;4.30;;;1.70;;
18532;SDS011;9396;51.510;11.934;2023-07-31T03:18:52;2.77;;;1.43;;
18532;SDS011;9396;51.510;11.934;2023-07-31T03:21:23;3.60;;;1.50;;
18532;SDS011;9396;51.510;11.934;2023-07-31T03:23:52;5.53;;;1.87;;
18532;SDS011;9396;51.510;11.934;2023-07-31T03:26:19;5.57;;;1.90;;
18532;SDS011;9396;51.510;11.934;2023-07-31T03:28:47;3.20;;;1.73;;
18532;SDS011;9396;51.510;11.934;2023-07-31T03:31:14;6.20;;;2.13;;
18532;SDS011;9396;51.510;11.934;2023-07-31T03:33:41;4.43;;;1.53;;
18532;SDS011;9396;51.510;11.934;2023-07-31T03:36:08;4.20;;;1.73;;
18532;SDS011;9396;51.510;11.934;2023-07-31T03:38:34;3.67;;;1.80;;
18532;SDS011;9396;51.510;11.934;2023-07-31T03:41:01;5.07;;;1.67;;
18532;SDS011;9396;51.510;11.934;2023-07-31T03:43:28;5.77;;;1.97;;
18532;SDS011;9396;51.510;11.934;2023-07-31T03:45:56;4.23;;;1.60;;
18532;SDS011;9396;51.510;11.934;2023-07-31T03:48:22;3.03;;;1.70;;
18532;SDS011;9396;51.510;11.934;2023-07-31T03:50:49;3.97;;;1.80;;
18532;SDS011;9396;51.510;11.934;2023-07-31T03:53:16;5.10;;;1.80;;
18532;SDS011;9396;51.510;11.934;2023-07-31T03:55:42;5.87;;;1.70;;
18532;SDS011;9396;51.510;11.934;2023-07-31T03:58:09;6.57;;;2.20;;
18532;SDS011;9396;51.510;11.934;2023-07-31T04:00:36;2.70;;;1.70;;
18532;SDS011;9396;51.510;11.934;2023-07-31T04:03:04;5.93;;;1.90;;
18532;SDS011;9396;51.510;11.934;2023-07-31T04:05:31;4.53;;;1.60;;
18532;SDS011;9396;51.510;11.934;2023-07-31T04:07:58;6.27;;;2.10;;
18532;SDS011;9396;51.510;11.934;2023-07-31T04:10:25;3.83;;;1.63;;
18532;SDS011;9396;51.510;11.934;2023-07-31T04:12:52;5.37;;;1.80;;
18532;SDS011;9396;51.510;11.934;2023-07-31T04:15:18;4.70;;;1.80;;
18532;SDS011;9396;51.510;11.934;2023-07-31T04:17:45;5.60;;;1.83;;
18532;SDS011;9396;51.510;11.934;2023-07-31T04:20:13;7.93;;;2.03;;
18532;SDS011;9396;51.510;11.934;2023-07-31T04:22:40;5.80;;;1.70;;
18532;SDS011;9396;51.510;11.934;2023-07-31T04:25:07;5.43;;;2.20;;
18532;SDS011;9396;51.510;11.934;2023-07-31T04:27:34;4.73;;;1.90;;
18532;SDS011;9396;51.510;11.934;2023-07-31T04:30:00;6.00;;;2.07;;
18532;SDS011;9396;51.510;11.934;2023-07-31T04:32:27;5.60;;;2.20;;
18532;SDS011;9396;51.510;11.934;2023-07-31T04:34:54;9.80;;;2.30;;
18532;SDS011;9396;51.510;11.934;2023-07-31T04:37:22;7.70;;;2.10;;
18532;SDS011;9396;51.510;11.934;2023-07-31T04:39:49;5.47;;;2.30;;
18532;SDS011;9396;51.510;11.934;2023-07-31T04:42:16;4.77;;;2.00;;
18532;SDS011;9396;51.510;11.934;2023-07-31T04:44:42;7.53;;;2.00;;
18532;SDS011;9396;51.510;11.934;2023-07-31T04:47:09;7.77;;;2.27;;
18532;SDS011;9396;51.510;11.934;2023-07-31T04:49:36;7.07;;;2.00;;
18532;SDS011;9396;51.510;11.934;2023-07-31T04:52:03;7.33;;;2.73;;
18532;SDS011;9396;51.510;11.934;2023-07-31T04:54:31;7.73;;;2.13;;
18532;SDS011;9396;51.510;11.934;2023-07-31T04:56:58;3.57;;;2.07;;
18532;SDS011;9396;51.510;11.934;2023-07-31T04:59:25;6.13;;;1.80;;
18532;SDS011;9396;51.510;11.934;2023-07-31T05:01:51;3.90;;;2.00;;
18532;SDS011;9396;51.510;11.934;2023-07-31T05:04:18;3.97;;;1.87;;
18532;SDS011;9396;51.510;11.934;2023-07-31T05:06:45;5.07;;;2.07;;
18532;SDS011;9396;51.510;11.934;2023-07-31T05:09:11;5.13;;;2.30;;
18532;SDS011;9396;51.510;11.934;2023-07-31T05:11:39;6.33;;;2.37;;
18532;SDS011;9396;51.510;11.934;2023-07-31T05:14:07;3.67;;;2.20;;
18532;SDS011;9396;51.510;11.934;2023-07-31T05:16:34;4.47;;;2.40;;
18532;SDS011;9396;51.510;11.934;2023-07-31T05:19:01;3.37;;;1.90;;
18532;SDS011;9396;51.510;11.934;2023-07-31T05:21:28;6.80;;;2.50;;
18532;SDS011;9396;51.510;11.934;2023-07-31T05:23:54;6.70;;;2.50;;
18532;SDS011;9396;51.510;11.934;2023-07-31T05:26:21;5.00;;;2.27;;
18532;SDS011;9396;51.510;11.934;2023-07-31T05:28:49;7.63;;;2.40;;
18532;SDS011;9396;51.510;11.934;2023-07-31T05:31:16;9.27;;;2.77;;
18532;SDS011;9396;51.510;11.934;2023-07-31T05:33:42;4.57;;;2.77;;
18532;SDS011;9396;51.510;11.934;2023-07-31T05:36:09;4.43;;;2.47;;
18532;SDS011;9396;51.510;11.934;2023-07-31T05:38:36;4.97;;;2.20;;
18532;SDS011;9396;51.510;11.934;2023-07-31T05:41:03;5.77;;;2.10;;
18532;SDS011;9396;51.510;11.934;2023-07-31T05:43:30;7.13;;;2.70;;
18532;SDS011;9396;51.510;11.934;2023-07-31T05:45:58;5.73;;;2.37;;
18532;SDS011;9396;51.510;11.934;2023-07-31T05:48:24;4.53;;;2.23;;
18532;SDS011;9396;51.510;11.934;2023-07-31T05:50:51;4.60;;;2.13;;
18532;SDS011;9396;51.510;11.934;2023-07-31T05:53:18;5.50;;;2.07;;
18532;SDS011;9396;51.510;11.934;2023-07-31T05:55:44;3.50;;;2.10;;
18532;SDS011;9396;51.510;11.934;2023-07-31T05:58:11;4.53;;;2.00;;
18532;SDS011;9396;51.510;11.934;2023-07-31T06:00:38;6.30;;;2.43;;
18532;SDS011;9396;51.510;11.934;2023-07-31T06:03:07;4.67;;;2.30;;
18532;SDS011;9396;51.510;11.934;2023-07-31T06:05:34;4.40;;;2.23;;
18532;SDS011;9396;51.510;11.934;2023-07-31T06:08:00;6.67;;;2.47;;
18532;SDS011;9396;51.510;11.934;2023-07-31T06:10:27;4.43;;;2.03;;
18532;SDS011;9396;51.510;11.934;2023-07-31T06:12:54;5.10;;;2.20;;
18532;SDS011;9396;51.510;11.934;2023-07-31T06:15:22;5.33;;;2.30;;
18532;SDS011;9396;51.510;11.934;2023-07-31T06:17:49;8.53;;;2.77;;
18532;SDS011;9396;51.510;11.934;2023-07-31T06:20:17;4.57;;;1.90;;
18532;SDS011;9396;51.510;11.934;2023-07-31T06:22:44;6.00;;;2.37;;
18532;SDS011;9396;51.510;11.934;2023-07-31T06:25:11;4.73;;;2.40;;
18532;SDS011;9396;51.510;11.934;2023-07-31T06:27:38;4.40;;;2.20;;
18532;SDS011;9396;51.510;11.934;2023-07-31T06:30:05;10.57;;;2.40;;
18532;SDS011;9396;51.510;11.934;2023-07-31T06:32:33;8.47;;;2.80;;
18532;SDS011;9396;51.510;11.934;2023-07-31T06:34:59;3.90;;;2.13;;
18532;SDS011;9396;51.510;11.934;2023-07-31T06:37:27;5.63;;;2.60;;
18532;SDS011;9396;51.510;11.934;2023-07-31T06:39:54;10.17;;;2.40;;
18532;SDS011;9396;51.510;11.934;2023-07-31T06:42:21;4.63;;;2.00;;
18532;SDS011;9396;51.510;11.934;2023-07-31T06:44:48;9.63;;;2.27;;
18532;SDS011;9396;51.510;11.934;2023-07-31T06:47:14;4.97;;;2.03;;
18532;SDS011;9396;51.510;11.934;2023-07-31T06:49:41;5.97;;;2.30;;
18532;SDS011;9396;51.510;11.934;2023-07-31T06:52:08;4.73;;;2.30;;
18532;SDS011;9396;51.510;11.934;2023-07-31T06:54:37;4.63;;;2.10;;
18532;SDS011;9396;51.510;11.934;2023-07-31T06:57:04;6.77;;;2.27;;
18532;SDS011;9396;51.510;11.934;2023-07-31T06:59:31;7.60;;;2.33;;
18532;SDS011;9396;51.510;11.934;2023-07-31T07:01:57;5.13;;;2.03;;
18532;SDS011;9396;51.510;11.934;2023-07-31T07:04:24;4.33;;;2.30;;
18532;SDS011;9396;51.510;11.934;2023-07-31T07:06:51;4.07;;;1.97;;
18532;SDS011;9396;51.510;11.934;2023-07-31T07:09:18;3.30;;;2.03;;
18532;SDS011;9396;51.510;11.934;2023-07-31T07:11:46;4.67;;;2.20;;
18532;SDS011;9396;51.510;11.934;2023-07-31T07:14:13;5.37;;;2.13;;
18532;SDS011;9396;51.510;11.934;2023-07-31T07:16:39;3.53;;;1.87;;
18532;SDS011;9396;51.510;11.934;2023-07-31T07:19:07;6.00;;;2.37;;
18532;SDS011;9396;51.510;11.934;2023-07-31T07:21:33;7.77;;;2.20;;
18532;SDS011;9396;51.510;11.934;2023-07-31T07:24:00;4.10;;;2.13;;
18532;SDS011;9396;51.510;11.934;2023-07-31T07:26:27;5.97;;;2.20;;
18532;SDS011;9396;51.510;11.934;2023-07-31T07:28:55;7.13;;;2.50;;
18532;SDS011;9396;51.510;11.934;2023-07-31T07:31:22;4.50;;;2.03;;
18532;SDS011;9396;51.510;11.934;2023-07-31T07:33:49;7.70;;;2.50;;
18532;SDS011;9396;51.510;11.934;2023-07-31T07:36:16;5.90;;;2.97;;
18532;SDS011;9396;51.510;11.934;2023-07-31T07:38:42;5.37;;;2.20;;
18532;SDS011;9396;51.510;11.934;2023-07-31T07:41:09;3.50;;;2.20;;
18532;SDS011;9396;51.510;11.934;2023-07-31T07:43:36;3.00;;;2.10;;
18532;SDS011;9396;51.510;11.934;2023-07-31T07:46:04;5.67;;;2.23;;
18532;SDS011;9396;51.510;11.934;2023-07-31T07:48:30;5.60;;;2.00;;
18532;SDS011;9396;51.510;11.934;2023-07-31T07:50:57;3.87;;;2.07;;
18532;SDS011;9396;51.510;11.934;2023-07-31T07:53:24;5.73;;;2.13;;
18532;SDS011;9396;51.510;11.934;2023-07-31T07:55:50;4.80;;;2.10;;
18532;SDS011;9396;51.510;11.934;2023-07-31T07:58:17;5.47;;;2.10;;
18532;SDS011;9396;51.510;11.934;2023-07-31T08:00:48;5.20;;;1.87;;
18532;SDS011;9396;51.510;11.934;2023-07-31T08:03:16;3.37;;;2.20;;
18532;SDS011;9396;51.510;11.934;2023-07-31T08:05:43;5.60;;;2.30;;
18532;SDS011;9396;51.510;11.934;2023-07-31T08:08:13;5.10;;;2.03;;
18532;SDS011;9396;51.510;11.934;2023-07-31T08:10:41;3.70;;;2.10;;
18532;SDS011;9396;51.510;11.934;2023-07-31T08:13:09;3.83;;;2.00;;
18532;SDS011;9396;51.510;11.934;2023-07-31T08:15:36;5.00;;;2.30;;
18532;SDS011;9396;51.510;11.934;2023-07-31T08:18:03;3.53;;;2.07;;
18532;SDS011;9396;51.510;11.934;2023-07-31T08:20:31;3.63;;;1.93;;
18532;SDS011;9396;51.510;11.934;2023-07-31T08:22:57;4.53;;;2.20;;
18532;SDS011;9396;51.510;11.934;2023-07-31T08:25:24;3.70;;;2.03;;
18532;SDS011;9396;51.510;11.934;2023-07-31T08:27:51;6.23;;;2.40;;
18532;SDS011;9396;51.510;11.934;2023-07-31T08:30:18;4.60;;;2.77;;
18532;SDS011;9396;51.510;11.934;2023-07-31T08:32:45;5.50;;;2.20;;
18532;SDS011;9396;51.510;11.934;2023-07-31T08:35:12;5.23;;;2.30;;
18532;SDS011;9396;51.510;11.934;2023-07-31T08:37:40;5.30;;;2.30;;
18532;SDS011;9396;51.510;11.934;2023-07-31T08:40:07;4.40;;;2.00;;
18532;SDS011;9396;51.510;11.934;2023-07-31T08:42:41;3.83;;;2.07;;
18532;SDS011;9396;51.510;11.934;2023-07-31T08:45:10;4.90;;;2.00;;
18532;SDS011;9396;51.510;11.934;2023-07-31T08:47:40;5.60;;;2.07;;
18532;SDS011;9396;51.510;11.934;2023-07-31T08:50:08;4.23;;;2.30;;
18532;SDS011;9396;51.510;11.934;2023-07-31T08:52:36;3.23;;;1.90;;
18532;SDS011;9396;51.510;11.934;2023-07-31T08:55:05;3.37;;;1.90;;
18532;SDS011;9396;51.510;11.934;2023-07-31T08:57:33;3.53;;;2.10;;
18532;SDS011;9396;51.510;11.934;2023-07-31T09:00:02;5.87;;;2.27;;
18532;SDS011;9396;51.510;11.934;2023-07-31T09:02:31;4.00;;;2.37;;
18532;SDS011;9396;51.510;11.934;2023-07-31T09:05:07;4.13;;;2.47;;
18532;SDS011;9396;51.510;11.934;2023-07-31T09:07:35;6.80;;;2.20;;
18532;SDS011;9396;51.510;11.934;2023-07-31T09:10:02;4.43;;;2.20;;
18532;SDS011;9396;51.510;11.934;2023-07-31T09:12:30;3.73;;;2.03;;
18532;SDS011;9396;51.510;11.934;2023-07-31T09:14:58;4.23;;;2.27;;
18532;SDS011;9396;51.510;11.934;2023-07-31T09:17:31;6.37;;;2.33;;
18532;SDS011;9396;51.510;11.934;2023-07-31T09:20:01;8.07;;;2.20;;
18532;SDS011;9396;51.510;11.934;2023-07-31T09:22:39;6.43;;;2.40;;
18532;SDS011;9396;51.510;11.934;2023-07-31T09:25:14;5.73;;;2.20;;
18532;SDS011;9396;51.510;11.934;2023-07-31T09:27:50;4.43;;;2.30;;
18532;SDS011;9396;51.510;11.934;2023-07-31T09:30:17;6.43;;;2.30;;
18532;SDS011;9396;51.510;11.934;2023-07-31T09:32:45;8.00;;;2.40;;
18532;SDS011;9396;51.510;11.934;2023-07-31T09:35:13;5.90;;;2.30;;
18532;SDS011;9396;51.510;11.934;2023-07-31T09:37:44;5.90;;;2.10;;
18532;SDS011;9396;51.510;11.934;2023-07-31T09:40:24;5.07;;;2.30;;
18532;SDS011;9396;51.510;11.934;2023-07-31T09:42:53;5.90;;;2.57;;
18532;SDS011;9396;51.510;11.934;2023-07-31T09:45:22;4.83;;;2.50;;
18532;SDS011;9396;51.510;11.934;2023-07-31T09:47:49;4.43;;;2.63;;
18532;SDS011;9396;51.510;11.934;2023-07-31T09:50:16;6.80;;;3.20;;
18532;SDS011;9396;51.510;11.934;2023-07-31T09:52:42;8.27;;;2.80;;
18532;SDS011;9396;51.510;11.934;2023-07-31T09:55:09;4.43;;;2.70;;
18532;SDS011;9396;51.510;11.934;2023-07-31T09:57:36;6.63;;;2.53;;
18532;SDS011;9396;51.510;11.934;2023-07-31T10:00:08;4.27;;;2.50;;
18532;SDS011;9396;51.510;11.934;2023-07-31T10:02:36;3.63;;;1.80;;
18532;SDS011;9396;51.510;11.934;2023-07-31T10:05:04;3.93;;;2.10;;
18532;SDS011;9396;51.510;11.934;2023-07-31T10:07:34;4.23;;;2.40;;
18532;SDS011;9396;51.510;11.934;2023-07-31T10:10:03;4.47;;;2.17;;
18532;SDS011;9396;51.510;11.934;2023-07-31T10:12:31;6.97;;;2.43;;
18532;SDS011;9396;51.510;11.934;2023-07-31T10:14:59;5.50;;;2.53;;
18532;SDS011;9396;51.510;11.934;2023-07-31T10:17:28;4.67;;;2.10;;
18532;SDS011;9396;51.510;11.934;2023-07-31T10:19:56;6.90;;;2.40;;
18532;SDS011;9396;51.510;11.934;2023-07-31T10:22:24;4.73;;;2.50;;
18532;SDS011;9396;51.510;11.934;2023-07-31T10:24:52;6.67;;;2.33;;
18532;SDS011;9396;51.510;11.934;2023-07-31T10:27:20;3.40;;;2.47;;
18532;SDS011;9396;51.510;11.934;2023-07-31T10:29:47;3.63;;;2.40;;
18532;SDS011;9396;51.510;11.934;2023-07-31T10:32:15;5.30;;;2.50;;
18532;SDS011;9396;51.510;11.934;2023-07-31T10:34:44;3.97;;;2.40;;
18532;SDS011;9396;51.510;11.934;2023-07-31T10:37:24;3.40;;;2.40;;
18532;SDS011;9396;51.510;11.934;2023-07-31T10:39:56;3.77;;;2.30;;
18532;SDS011;9396;51.510;11.934;2023-07-31T10:42:27;4.73;;;2.37;;
18532;SDS011;9396;51.510;11.934;2023-07-31T10:44:56;4.90;;;2.67;;
18532;SDS011;9396;51.510;11.934;2023-07-31T10:47:24;4.43;;;2.50;;
18532;SDS011;9396;51.510;11.934;2023-07-31T10:49:52;2.90;;;2.40;;
18532;SDS011;9396;51.510;11.934;2023-07-31T10:52:19;7.60;;;2.73;;
18532;SDS011;9396;51.510;11.934;2023-07-31T10:54:49;4.77;;;2.30;;
18532;SDS011;9396;51.510;11.934;2023-07-31T10:57:20;3.70;;;2.27;;
18532;SDS011;9396;51.510;11.934;2023-07-31T10:59:47;5.23;;;2.20;;
18532;SDS011;9396;51.510;11.934;2023-07-31T11:02:24;5.43;;;2.50;;
18532;SDS011;9396;51.510;11.934;2023-07-31T11:05:07;3.70;;;2.40;;
18532;SDS011;9396;51.510;11.934;2023-07-31T11:07:46;6.57;;;2.20;;
18532;SDS011;9396;51.510;11.934;2023-07-31T11:10:16;8.27;;;2.60;;
18532;SDS011;9396;51.510;11.934;2023-07-31T11:12:44;4.00;;;2.37;;
18532;SDS011;9396;51.510;11.934;2023-07-31T11:15:12;3.27;;;2.47;;
18532;SDS011;9396;51.510;11.934;2023-07-31T11:17:38;5.40;;;2.40;;
18532;SDS011;9396;51.510;11.934;2023-07-31T11:20:08;3.33;;;2.20;;
18532;SDS011;9396;51.510;11.934;2023-07-31T11:22:35;3.10;;;2.50;;
18532;SDS011;9396;51.510;11.934;2023-07-31T11:25:02;6.33;;;2.67;;
18532;SDS011;9396;51.510;11.934;2023-07-31T11:27:30;7.37;;;2.43;;
18532;SDS011;9396;51.510;11.934;2023-07-31T11:30:00;3.60;;;2.30;;
18532;SDS011;9396;51.510;11.934;2023-07-31T11:32:27;4.90;;;2.47;;
18532;SDS011;9396;51.510;11.934;2023-07-31T11:34:54;11.23;;;2.90;;
18532;SDS011;9396;51.510;11.934;2023-07-31T11:37:22;3.97;;;2.60;;
18532;SDS011;9396;51.510;11.934;2023-07-31T11:39:59;4.37;;;2.57;;
18532;SDS011;9396;51.510;11.934;2023-07-31T11:42:26;6.60;;;2.40;;
18532;SDS011;9396;51.510;11.934;2023-07-31T11:44:52;4.80;;;2.50;;
18532;SDS011;9396;51.510;11.934;2023-07-31T11:47:19;4.93;;;2.60;;
18532;SDS011;9396;51.510;11.934;2023-07-31T11:49:46;5.20;;;2.30;;
18532;SDS011;9396;51.510;11.934;2023-07-31T11:52:15;6.17;;;2.50;;
18532;SDS011;9396;51.510;11.934;2023-07-31T11:54:46;4.33;;;2.70;;
18532;SDS011;9396;51.510;11.934;2023-07-31T11:57:12;7.00;;;2.97;;
18532;SDS011;9396;51.510;11.934;2023-07-31T11:59:40;5.63;;;2.80;;
18532;SDS011;9396;51.510;11.934;2023-07-31T12:02:06;7.77;;;2.70;;
18532;SDS011;9396;51.510;11.934;2023-07-31T12:04:33;3.83;;;2.70;;
18532;SDS011;9396;51.510;11.934;2023-07-31T12:07:00;5.83;;;2.90;;
18532;SDS011;9396;51.510;11.934;2023-07-31T12:09:27;4.00;;;2.87;;
18532;SDS011;9396;51.510;11.934;2023-07-31T12:11:55;4.97;;;2.67;;
18532;SDS011;9396;51.510;11.934;2023-07-31T12:14:23;6.03;;;2.80;;
18532;SDS011;9396;51.510;11.934;2023-07-31T12:16:54;6.10;;;2.77;;
18532;SDS011;9396;51.510;11.934;2023-07-31T12:19:21;4.60;;;2.43;;
18532;SDS011;9396;51.510;11.934;2023-07-31T12:21:47;4.27;;;2.37;;
18532;SDS011;9396;51.510;11.934;2023-07-31T12:24:15;4.53;;;2.40;;
18532;SDS011;9396;51.510;11.934;2023-07-31T12:26:45;3.67;;;1.90;;
18532;SDS011;9396;51.510;11.934;2023-07-31T12:29:13;5.17;;;2.17;;
18532;SDS011;9396;51.510;11.934;2023-07-31T12:31:40;5.37;;;3.03;;
18532;SDS011;9396;51.510;11.934;2023-07-31T12:34:14;3.70;;;2.60;;
18532;SDS011;9396;51.510;11.934;2023-07-31T12:36:42;4.53;;;2.27;;
18532;SDS011;9396;51.510;11.934;2023-07-31T12:39:09;3.63;;;2.10;;
18532;SDS011;9396;51.510;11.934;2023-07-31T12:41:36;6.93;;;2.20;;
18532;SDS011;9396;51.510;11.934;2023-07-31T12:44:03;4.93;;;2.20;;
18532;SDS011;9396;51.510;11.934;2023-07-31T12:46:31;3.10;;;1.90;;
18532;SDS011;9396;51.510;11.934;2023-07-31T12:48:58;5.83;;;2.40;;
18532;SDS011;9396;51.510;11.934;2023-07-31T12:51:25;5.87;;;2.60;;
18532;SDS011;9396;51.510;11.934;2023-07-31T12:53:51;4.07;;;2.43;;
18532;SDS011;9396;51.510;11.934;2023-07-31T12:56:18;4.97;;;2.23;;
18532;SDS011;9396;51.510;11.934;2023-07-31T12:58:44;4.60;;;2.27;;
18532;SDS011;9396;51.510;11.934;2023-07-31T13:01:11;4.27;;;2.10;;
18532;SDS011;9396;51.510;11.934;2023-07-31T13:03:39;5.00;;;1.83;;
18532;SDS011;9396;51.510;11.934;2023-07-31T13:06:06;3.47;;;1.83;;
18532;SDS011;9396;51.510;11.934;2023-07-31T13:08:32;3.63;;;2.00;;
18532;SDS011;9396;51.510;11.934;2023-07-31T13:10:59;3.53;;;2.10;;
18532;SDS011;9396;51.510;11.934;2023-07-31T13:13:26;4.47;;;2.20;;
18532;SDS011;9396;51.510;11.934;2023-07-31T13:15:52;5.80;;;2.10;;
18532;SDS011;9396;51.510;11.934;2023-07-31T13:18:19;4.30;;;2.30;;
18532;SDS011;9396;51.510;11.934;2023-07-31T13:20:47;3.77;;;2.40;;
18532;SDS011;9396;51.510;11.934;2023-07-31T13:23:14;4.57;;;2.20;;
18532;SDS011;9396;51.510;11.934;2023-07-31T13:25:41;5.87;;;2.07;;
18532;SDS011;9396;51.510;11.934;2023-07-31T13:28:08;3.77;;;2.00;;
18532;SDS011;9396;51.510;11.934;2023-07-31T13:30:34;3.50;;;2.10;;
18532;SDS011;9396;51.510;11.934;2023-07-31T13:33:01;4.57;;;2.20;;
18532;SDS011;9396;51.510;11.934;2023-07-31T13:35:28;3.73;;;2.40;;
18532;SDS011;9396;51.510;11.934;2023-07-31T13:37:57;4.17;;;2.33;;
18532;SDS011;9396;51.510;11.934;2023-07-31T13:40:24;4.53;;;2.03;;
18532;SDS011;9396;51.510;11.934;2023-07-31T13:42:51;4.10;;;2.00;;
18532;SDS011;9396;51.510;11.934;2023-07-31T13:45:19;3.50;;;2.07;;
18532;SDS011;9396;51.510;11.934;2023-07-31T13:47:45;5.77;;;1.93;;
18532;SDS011;9396;51.510;11.934;2023-07-31T13:50:12;4.47;;;2.10;;
18532;SDS011;9396;51.510;11.934;2023-07-31T13:52:39;4.73;;;2.30;;
18532;SDS011;9396;51.510;11.934;2023-07-31T13:55:07;2.80;;;1.80;;
18532;SDS011;9396;51.510;11.934;2023-07-31T13:57:34;2.23;;;1.73;;
18532;SDS011;9396;51.510;11.934;2023-07-31T14:00:01;2.53;;;1.83;;
18532;SDS011;9396;51.510;11.934;2023-07-31T14:02:29;4.80;;;2.00;;
18532;SDS011;9396;51.510;11.934;2023-07-31T14:04:56;6.27;;;2.03;;
18532;SDS011;9396;51.510;11.934;2023-07-31T14:07:22;3.60;;;1.90;;
18532;SDS011;9396;51.510;11.934;2023-07-31T14:09:49;5.43;;;2.33;;
18532;SDS011;9396;51.510;11.934;2023-07-31T14:12:17;4.30;;;2.10;;
18532;SDS011;9396;51.510;11.934;2023-07-31T14:14:44;3.67;;;1.60;;
18532;SDS011;9396;51.510;11.934;2023-07-31T14:17:11;4.33;;;1.80;;
18532;SDS011;9396;51.510;11.934;2023-07-31T14:19:37;2.80;;;1.80;;
18532;SDS011;9396;51.510;11.934;2023-07-31T14:22:04;2.87;;;1.77;;
18532;SDS011;9396;51.510;11.934;2023-07-31T14:24:31;2.83;;;1.70;;
18532;SDS011;9396;51.510;11.934;2023-07-31T14:26:58;2.03;;;1.50;;
18532;SDS011;9396;51.510;11.934;2023-07-31T14:29:26;2.10;;;1.40;;
18532;SDS011;9396;51.510;11.934;2023-07-31T14:31:53;2.27;;;1.50;;
18532;SDS011;9396;51.510;11.934;2023-07-31T14:34:19;4.53;;;2.07;;
18532;SDS011;9396;51.510;11.934;2023-07-31T14:36:46;4.40;;;2.17;;
18532;SDS011;9396;51.510;11.934;2023-07-31T14:39:12;4.63;;;1.97;;
18532;SDS011;9396;51.510;11.934;2023-07-31T14:41:39;4.67;;;2.17;;
18532;SDS011;9396;51.510;11.934;2023-07-31T14:44:06;4.63;;;1.83;;
18532;SDS011;9396;51.510;11.934;2023-07-31T14:46:34;4.27;;;1.77;;
18532;SDS011;9396;51.510;11.934;2023-07-31T14:49:00;6.00;;;2.20;;
18532;SDS011;9396;51.510;11.934;2023-07-31T14:51:27;5.53;;;2.27;;
18532;SDS011;9396;51.510;11.934;2023-07-31T14:53:54;3.97;;;1.80;;